Time;durP1;ratioP1;P1;durP2;ratioP2;P2;SDS_P1;SDS_P2;PMS_P1;PMS_P2;Temp;Humidity;BMP_temperature;BMP_pressure;BME280_temperature;BME280_humidity;BME280_pressure;Samples;Min_cycle;Max_cycle;Signal;HPM_P1;HPM_P2
2022/06/25 00:00:49;;;;;;;3.63;3.43;;;;;;;;;;5073607;28;20225;-76
2022/06/25 00:03:16;;;;;;;3.83;3.53;;;;;;;;;;5077899;28;20284;-78
2022/06/25 00:05:43;;;;;;;4.25;3.85;;;;;;;;;;5079662;28;21199;-77
2022/06/25 00:08:11;;;;;;;4.17;3.77;;;;;;;;;;5076394;28;20227;-77
2022/06/25 00:10:38;;;;;;;4.40;4.00;;;;;;;;;;5081532;28;20244;-77
2022/06/25 00:13:06;;;;;;;5.40;3.73;;;;;;;;;;5075697;28;20255;-77
2022/06/25 00:15:33;;;;;;;4.43;3.90;;;;;;;;;;5081550;28;20228;-76
2022/06/25 00:18:00;;;;;;;4.23;3.80;;;;;;;;;;5073783;28;20801;-78
2022/06/25 00:20:27;;;;;;;3.83;3.53;;;;;;;;;;5077457;28;20217;-76
2022/06/25 00:22:54;;;;;;;4.93;3.43;;;;;;;;;;5079458;28;20244;-78
2022/06/25 00:25:22;;;;;;;5.57;3.90;;;;;;;;;;5075774;28;20217;-78
2022/06/25 00:27:49;;;;;;;4.53;3.80;;;;;;;;;;5077107;28;20347;-77
2022/06/25 00:30:16;;;;;;;4.03;3.73;;;;;;;;;;5081017;28;20730;-77
2022/06/25 00:32:44;;;;;;;6.17;4.13;;;;;;;;;;5082883;28;20200;-78
2022/06/25 00:35:11;;;;;;;4.00;3.70;;;;;;;;;;5082398;28;20196;-77
2022/06/25 00:37:38;;;;;;;4.53;3.70;;;;;;;;;;5065015;28;20206;-78
2022/06/25 00:40:06;;;;;;;4.33;3.93;;;;;;;;;;5078732;28;20681;-77
2022/06/25 00:42:34;;;;;;;5.30;4.60;;;;;;;;;;5085194;28;20230;-78
2022/06/25 00:45:01;;;;;;;4.63;4.23;;;;;;;;;;5085096;28;20698;-78
2022/06/25 00:47:28;;;;;;;4.57;4.27;;;;;;;;;;5085270;28;20239;-79
2022/06/25 00:49:56;;;;;;;6.13;5.40;;;;;;;;;;5056873;28;20300;-76
2022/06/25 00:52:25;;;;;;;5.63;5.23;;;;;;;;;;5074551;28;20215;-77
2022/06/25 00:54:54;;;;;;;6.10;5.50;;;;;;;;;;5083767;28;20216;-78
2022/06/25 00:57:26;;;;;;;7.57;5.77;;;;;;;;;;5082106;28;20288;-77
2022/06/25 00:59:57;;;;;;;6.90;6.30;;;;;;;;;;5075486;28;20227;-75
2022/06/25 01:02:25;;;;;;;7.23;6.53;;;;;;;;;;5066341;28;20289;-78
2022/06/25 01:04:52;;;;;;;7.60;7.00;;;;;;;;;;5078095;28;20201;-76
2022/06/25 01:07:20;;;;;;;8.53;7.57;;;;;;;;;;5085083;28;20625;-77
2022/06/25 01:09:48;;;;;;;7.43;6.73;;;;;;;;;;5084232;28;20201;-76
2022/06/25 01:12:16;;;;;;;7.60;6.90;;;;;;;;;;5083295;28;20263;-74
2022/06/25 01:14:44;;;;;;;8.43;6.97;;;;;;;;;;5082102;28;20573;-76
2022/06/25 01:17:12;;;;;;;6.83;6.33;;;;;;;;;;5081957;28;20643;-77
2022/06/25 01:19:39;;;;;;;7.27;6.73;;;;;;;;;;5064710;28;20270;-78
2022/06/25 01:22:07;;;;;;;8.10;7.40;;;;;;;;;;5080071;28;20695;-77
2022/06/25 01:24:36;;;;;;;7.47;6.73;;;;;;;;;;5076742;28;20258;-76
2022/06/25 01:27:12;;;;;;;6.93;6.43;;;;;;;;;;5080378;28;20189;-77
2022/06/25 01:29:39;;;;;;;7.13;6.57;;;;;;;;;;5082013;28;20303;-78
2022/06/25 01:32:06;;;;;;;6.87;6.37;;;;;;;;;;5066803;28;20257;-77
2022/06/25 01:34:34;;;;;;;7.50;6.77;;;;;;;;;;5082185;28;20201;-77
2022/06/25 01:37:03;;;;;;;7.70;6.90;;;;;;;;;;5069535;28;20671;-76
2022/06/25 01:39:30;;;;;;;6.83;6.30;;;;;;;;;;5070085;28;20319;-78
2022/06/25 01:41:58;;;;;;;8.17;7.27;;;;;;;;;;5073085;28;20217;-78
2022/06/25 01:44:25;;;;;;;7.17;6.57;;;;;;;;;;5074520;28;20208;-78
2022/06/25 01:46:52;;;;;;;7.07;6.47;;;;;;;;;;5082784;28;20221;-76
2022/06/25 01:49:20;;;;;;;8.60;6.90;;;;;;;;;;5080025;28;20296;-78
2022/06/25 01:51:47;;;;;;;7.53;6.83;;;;;;;;;;5074686;28;20665;-77
2022/06/25 01:54:14;;;;;;;8.27;7.43;;;;;;;;;;5076877;28;20878;-77
2022/06/25 01:56:41;;;;;;;9.40;7.77;;;;;;;;;;5081597;28;20790;-79
2022/06/25 01:59:09;;;;;;;7.83;7.13;;;;;;;;;;5087212;28;20251;-78
2022/06/25 02:01:36;;;;;;;7.83;7.13;;;;;;;;;;5075684;28;20350;-76
2022/06/25 02:04:03;;;;;;;6.97;6.43;;;;;;;;;;5077181;28;20220;-76
2022/06/25 02:06:31;;;;;;;7.10;6.50;;;;;;;;;;5070508;28;20302;-78
2022/06/25 02:08:59;;;;;;;6.90;6.40;;;;;;;;;;5082709;28;20204;-79
2022/06/25 02:11:26;;;;;;;7.13;6.53;;;;;;;;;;5076828;28;20224;-80
2022/06/25 02:13:54;;;;;;;7.63;6.87;;;;;;;;;;5078903;28;20263;-76
2022/06/25 02:16:21;;;;;;;7.73;6.93;;;;;;;;;;5085711;28;20654;-77
2022/06/25 02:18:48;;;;;;;7.77;7.07;;;;;;;;;;5076694;28;20236;-77
2022/06/25 02:21:15;;;;;;;7.60;6.83;;;;;;;;;;5074844;28;20787;-80
2022/06/25 02:23:43;;;;;;;7.90;7.20;;;;;;;;;;5078952;28;20688;-76
2022/06/25 02:26:10;;;;;;;7.83;7.23;;;;;;;;;;5063718;28;20315;-78
2022/06/25 02:28:38;;;;;;;7.60;7.00;;;;;;;;;;5074992;28;20235;-78
2022/06/25 02:31:05;;;;;;;7.57;6.87;;;;;;;;;;5079896;28;20225;-76
2022/06/25 02:33:32;;;;;;;7.07;6.47;;;;;;;;;;5081912;28;20232;-77
2022/06/25 02:36:00;;;;;;;7.23;6.63;;;;;;;;;;5072661;28;20292;-78
2022/06/25 02:38:27;;;;;;;7.77;7.07;;;;;;;;;;5081218;28;20220;-77
2022/06/25 02:40:55;;;;;;;7.87;7.07;;;;;;;;;;5078538;28;20255;-79
2022/06/25 02:43:22;;;;;;;8.03;7.23;;;;;;;;;;5076394;28;20251;-77
2022/06/25 02:45:50;;;;;;;7.60;6.90;;;;;;;;;;5080451;28;20233;-77
2022/06/25 02:48:17;;;;;;;7.50;6.80;;;;;;;;;;5075866;28;20287;-79
2022/06/25 02:50:44;;;;;;;8.13;7.43;;;;;;;;;;5073802;28;20253;-78
2022/06/25 02:53:11;;;;;;;7.63;7.03;;;;;;;;;;5077699;28;20206;-78
2022/06/25 03:01:11;;;;;;;7.40;6.80;;;;;;;;;;5082774;28;20335;-78
2022/06/25 03:03:38;;;;;;;7.20;6.60;;;;;;;;;;5081544;28;20292;-78
2022/06/25 03:06:05;;;;;;;6.83;6.33;;;;;;;;;;5081111;28;20829;-77
2022/06/25 03:08:33;;;;;;;6.50;5.77;;;;;;;;;;5083007;28;20211;-76
2022/06/25 03:11:00;;;;;;;6.90;6.33;;;;;;;;;;5064255;28;20252;-78
2022/06/25 03:13:29;;;;;;;6.80;6.20;;;;;;;;;;5077692;28;20274;-78
2022/06/25 03:15:56;;;;;;;6.93;6.33;;;;;;;;;;5085404;28;20232;-75
2022/06/25 03:18:24;;;;;;;6.50;5.83;;;;;;;;;;5084216;28;20201;-79
2022/06/25 03:20:52;;;;;;;6.40;5.80;;;;;;;;;;5074329;28;22285;-77
2022/06/25 03:23:19;;;;;;;6.33;5.73;;;;;;;;;;5076536;28;20283;-78
2022/06/25 03:25:47;;;;;;;6.43;5.93;;;;;;;;;;5076587;28;20217;-76
2022/06/25 03:28:14;;;;;;;6.60;6.00;;;;;;;;;;5081461;28;20197;-78
2022/06/25 03:30:42;;;;;;;6.23;5.73;;;;;;;;;;5063749;28;20682;-77
2022/06/25 03:33:09;;;;;;;6.43;5.93;;;;;;;;;;5079157;28;20284;-78
2022/06/25 03:35:36;;;;;;;6.60;6.00;;;;;;;;;;5081185;28;20247;-77
2022/06/25 03:38:03;;;;;;;7.17;6.50;;;;;;;;;;5081021;28;20247;-79
2022/06/25 03:40:31;;;;;;;6.77;6.13;;;;;;;;;;5074876;28;20233;-77
2022/06/25 03:42:58;;;;;;;6.30;5.80;;;;;;;;;;5076762;28;20890;-78
2022/06/25 03:45:25;;;;;;;6.37;5.87;;;;;;;;;;5078042;28;20197;-77
2022/06/25 03:47:53;;;;;;;7.33;6.13;;;;;;;;;;5080020;28;20316;-78
2022/06/25 03:50:21;;;;;;;6.40;5.90;;;;;;;;;;5081554;28;20297;-77
2022/06/25 03:52:50;;;;;;;6.50;6.00;;;;;;;;;;5078967;28;20651;-77
2022/06/25 03:55:18;;;;;;;8.53;6.70;;;;;;;;;;5067261;28;20220;-78
2022/06/25 03:58:02;;;;;;;7.23;6.63;;;;;;;;;;5096412;28;20193;-77
2022/06/25 04:00:29;;;;;;;6.80;6.20;;;;;;;;;;5074463;28;20334;-77
2022/06/25 04:02:57;;;;;;;7.47;6.73;;;;;;;;;;5080292;28;20251;-78
2022/06/25 04:05:24;;;;;;;7.37;6.67;;;;;;;;;;5086753;28;20235;-77
2022/06/25 04:07:51;;;;;;;7.40;6.80;;;;;;;;;;5078997;28;20201;-79
2022/06/25 04:10:18;;;;;;;7.77;6.97;;;;;;;;;;5079278;28;20209;-78
2022/06/25 04:12:46;;;;;;;6.80;6.17;;;;;;;;;;5086204;28;20212;-78
2022/06/25 04:15:13;;;;;;;6.80;6.20;;;;;;;;;;5078428;28;20295;-78
2022/06/25 04:17:40;;;;;;;6.87;6.37;;;;;;;;;;5083282;28;20237;-81
2022/06/25 04:20:08;;;;;;;6.73;6.13;;;;;;;;;;5073932;28;20256;-79
2022/06/25 04:22:37;;;;;;;7.47;6.87;;;;;;;;;;5081580;28;20233;-77
2022/06/25 04:25:04;;;;;;;8.00;6.97;;;;;;;;;;5081446;28;20232;-78
2022/06/25 04:30:17;;;;;;;7.27;6.67;;;;;;;;;;5081039;28;20280;-75
2022/06/25 04:32:45;;;;;;;6.83;6.23;;;;;;;;;;5082297;28;20197;-78
2022/06/25 04:35:12;;;;;;;7.20;6.50;;;;;;;;;;5083253;28;20205;-76
2022/06/25 04:37:39;;;;;;;6.27;5.77;;;;;;;;;;5084115;28;21153;-75
2022/06/25 04:40:07;;;;;;;7.03;6.43;;;;;;;;;;5070174;28;20277;-75
2022/06/25 04:42:34;;;;;;;7.10;6.50;;;;;;;;;;5092147;28;20279;-76
2022/06/25 04:45:01;;;;;;;7.77;6.97;;;;;;;;;;5089051;28;20304;-76
2022/06/25 04:47:28;;;;;;;7.30;6.70;;;;;;;;;;5089610;28;20224;-77
2022/06/25 04:49:56;;;;;;;6.80;6.30;;;;;;;;;;5092702;28;20216;-76
2022/06/25 04:52:23;;;;;;;7.13;6.47;;;;;;;;;;5095121;28;20260;-77
2022/06/25 04:54:50;;;;;;;7.83;6.83;;;;;;;;;;5087480;28;20292;-77
2022/06/25 04:57:17;;;;;;;7.13;6.53;;;;;;;;;;5088798;28;20209;-77
2022/06/25 04:59:45;;;;;;;7.10;6.50;;;;;;;;;;5083314;28;20225;-76
2022/06/25 05:02:12;;;;;;;6.30;5.80;;;;;;;;;;5090342;28;20286;-77
2022/06/25 05:04:39;;;;;;;7.13;6.53;;;;;;;;;;5089602;28;20239;-77
2022/06/25 05:07:06;;;;;;;7.20;6.50;;;;;;;;;;5104431;28;20209;-76
2022/06/25 05:09:34;;;;;;;6.77;6.27;;;;;;;;;;5083285;28;20284;-76
2022/06/25 05:12:01;;;;;;;7.40;5.80;;;;;;;;;;5089673;28;20264;-75
2022/06/25 05:14:28;;;;;;;7.22;5.45;;;;;;;;;;5076487;28;20283;-77
2022/06/25 05:16:56;;;;;;;5.60;5.20;;;;;;;;;;5088997;28;20226;-75
2022/06/25 05:19:23;;;;;;;5.53;5.13;;;;;;;;;;5076694;28;20566;-77
2022/06/25 05:21:50;;;;;;;5.50;5.10;;;;;;;;;;5090349;28;20251;-75
2022/06/25 05:24:17;;;;;;;7.50;5.43;;;;;;;;;;5074711;28;20266;-77
2022/06/25 05:26:45;;;;;;;5.30;4.80;;;;;;;;;;5075078;28;20201;-77
2022/06/25 05:29:13;;;;;;;4.85;4.40;;;;;;;;;;5088232;28;20235;-77
2022/06/25 05:31:40;;;;;;;4.50;4.10;;;;;;;;;;5081046;28;20255;-77
2022/06/25 05:34:07;;;;;;;3.90;3.50;;;;;;;;;;5087686;28;20226;-77
2022/06/25 05:36:35;;;;;;;3.30;3.10;;;;;;;;;;5086860;28;20252;-76
2022/06/25 05:39:02;;;;;;;3.33;3.05;;;;;;;;;;5084837;28;20198;-77
2022/06/25 05:41:29;;;;;;;2.42;2.33;;;;;;;;;;5076125;28;20252;-78
2022/06/25 05:43:56;;;;;;;2.40;2.20;;;;;;;;;;5092749;28;20271;-76
2022/06/25 05:46:24;;;;;;;2.13;2.03;;;;;;;;;;5069795;28;20228;-77
2022/06/25 05:48:51;;;;;;;2.55;2.20;;;;;;;;;;5061508;28;20722;-77
2022/06/25 05:51:18;;;;;;;2.13;1.95;;;;;;;;;;5089092;28;20256;-76
2022/06/25 05:53:45;;;;;;;1.70;1.70;;;;;;;;;;5085602;28;20230;-77
2022/06/25 05:56:13;;;;;;;2.10;1.90;;;;;;;;;;5084196;28;20372;-78
2022/06/25 05:58:40;;;;;;;1.50;1.40;;;;;;;;;;5084058;28;20239;-77
2022/06/25 06:01:07;;;;;;;1.45;1.38;;;;;;;;;;5085207;28;20415;-77
2022/06/25 06:03:35;;;;;;;1.80;1.70;;;;;;;;;;5083379;28;20216;-76
2022/06/25 06:06:02;;;;;;;1.58;1.40;;;;;;;;;;5088230;28;20193;-77
2022/06/25 06:08:29;;;;;;;2.13;1.35;;;;;;;;;;5077598;28;20232;-76
2022/06/25 06:10:56;;;;;;;1.70;1.60;;;;;;;;;;5086249;28;20228;-75
2022/06/25 06:13:24;;;;;;;2.35;1.52;;;;;;;;;;5077348;28;20247;-77
2022/06/25 06:15:51;;;;;;;1.52;1.52;;;;;;;;;;5080549;28;20242;-76
2022/06/25 06:18:18;;;;;;;1.50;1.50;;;;;;;;;;5078032;28;20251;-77
2022/06/25 06:20:46;;;;;;;1.73;1.63;;;;;;;;;;5085194;28;20376;-75
2022/06/25 06:23:14;;;;;;;1.90;1.80;;;;;;;;;;5077586;28;21144;-76
2022/06/25 06:25:41;;;;;;;3.47;1.88;;;;;;;;;;5082675;28;20688;-76
2022/06/25 06:28:08;;;;;;;2.22;2.10;;;;;;;;;;5085678;28;20645;-75
2022/06/25 06:30:36;;;;;;;2.20;2.10;;;;;;;;;;5083623;28;20244;-75
2022/06/25 06:33:03;;;;;;;2.17;2.00;;;;;;;;;;5085763;28;20233;-75
2022/06/25 06:35:31;;;;;;;2.55;2.35;;;;;;;;;;5087008;28;20235;-74
2022/06/25 06:37:59;;;;;;;3.13;2.80;;;;;;;;;;5085622;28;20646;-76
2022/06/25 06:40:26;;;;;;;3.53;3.22;;;;;;;;;;5088855;28;20231;-76
2022/06/25 06:42:55;;;;;;;3.25;3.05;;;;;;;;;;5084744;28;20204;-76
2022/06/25 06:45:23;;;;;;;3.42;3.22;;;;;;;;;;5088768;28;20201;-76
2022/06/25 06:47:50;;;;;;;3.60;3.05;;;;;;;;;;5110621;27;20235;-76
2022/06/25 06:50:18;;;;;;;2.90;2.70;;;;;;;;;;5092634;28;20754;-76
2022/06/25 06:52:45;;;;;;;3.20;3.00;;;;;;;;;;5094866;28;20263;-76
2022/06/25 06:55:12;;;;;;;2.92;2.72;;;;;;;;;;5094883;28;20255;-76
2022/06/25 06:57:39;;;;;;;3.05;2.85;;;;;;;;;;5087956;28;20450;-76
2022/06/25 07:00:12;;;;;;;3.10;2.70;;;;;;;;;;5085388;28;20248;-76
2022/06/25 07:02:39;;;;;;;3.05;2.85;;;;;;;;;;5087496;28;20197;-76
2022/06/25 07:05:07;;;;;;;2.88;2.70;;;;;;;;;;5091826;28;20210;-76
2022/06/25 07:07:34;;;;;;;3.05;2.78;;;;;;;;;;5079864;28;20204;-76
2022/06/25 07:10:02;;;;;;;3.20;2.72;;;;;;;;;;5101326;27;20299;-77
2022/06/25 07:12:30;;;;;;;2.50;2.40;;;;;;;;;;5076326;28;20210;-77
2022/06/25 07:14:57;;;;;;;3.95;2.42;;;;;;;;;;5079845;28;20292;-75
2022/06/25 07:17:24;;;;;;;2.80;2.60;;;;;;;;;;5092230;28;20200;-76
2022/06/25 07:19:52;;;;;;;2.30;2.20;;;;;;;;;;5102080;28;20316;-77
2022/06/25 07:22:19;;;;;;;2.53;2.35;;;;;;;;;;5107411;27;20224;-77
2022/06/25 07:24:46;;;;;;;2.03;1.92;;;;;;;;;;5090061;28;20243;-77
2022/06/25 07:27:14;;;;;;;2.10;1.90;;;;;;;;;;5073605;28;20202;-76
2022/06/25 07:29:41;;;;;;;1.98;1.88;;;;;;;;;;5091941;28;20207;-77
2022/06/25 07:32:09;;;;;;;2.00;1.90;;;;;;;;;;5064671;28;20245;-76
2022/06/25 07:34:36;;;;;;;4.20;2.20;;;;;;;;;;5081034;28;20240;-78
2022/06/25 07:37:04;;;;;;;2.05;1.70;;;;;;;;;;5076788;28;20255;-77
2022/06/25 07:39:31;;;;;;;3.70;1.98;;;;;;;;;;5070042;28;20284;-76
2022/06/25 07:41:58;;;;;;;1.98;1.88;;;;;;;;;;5066657;28;20929;-76
2022/06/25 07:44:25;;;;;;;1.90;1.80;;;;;;;;;;5075514;28;20468;-76
2022/06/25 07:46:53;;;;;;;2.00;1.90;;;;;;;;;;5069473;28;20558;-76
2022/06/25 07:49:20;;;;;;;2.10;1.90;;;;;;;;;;5086198;28;20299;-77
2022/06/25 07:51:56;;;;;;;2.25;2.05;;;;;;;;;;5085062;28;20280;-75
2022/06/25 07:54:24;;;;;;;2.40;2.20;;;;;;;;;;5072511;28;20802;-75
2022/06/25 07:56:52;;;;;;;2.00;1.90;;;;;;;;;;5075720;28;20252;-77
2022/06/25 07:59:20;;;;;;;3.17;1.98;;;;;;;;;;5077151;28;20231;-76
2022/06/25 08:01:47;;;;;;;2.05;1.80;;;;;;;;;;5063730;28;20224;-76
2022/06/25 08:04:15;;;;;;;3.20;2.03;;;;;;;;;;5077680;28;20323;-76
2022/06/25 08:06:43;;;;;;;2.08;1.70;;;;;;;;;;5068374;28;22680;-75
2022/06/25 08:09:10;;;;;;;2.25;1.67;;;;;;;;;;5061454;28;20323;-77
2022/06/25 08:11:38;;;;;;;2.20;2.10;;;;;;;;;;5074408;28;20348;-76
2022/06/25 08:14:05;;;;;;;2.28;2.08;;;;;;;;;;5077544;28;20289;-76
2022/06/25 08:16:33;;;;;;;4.43;2.00;;;;;;;;;;5069775;28;20332;-78
2022/06/25 08:19:00;;;;;;;1.85;1.75;;;;;;;;;;5065775;28;20842;-77
2022/06/25 08:21:27;;;;;;;1.73;1.63;;;;;;;;;;5083108;28;20335;-76
2022/06/25 08:23:55;;;;;;;2.28;2.00;;;;;;;;;;5064357;28;20201;-76
2022/06/25 08:26:23;;;;;;;2.30;1.90;;;;;;;;;;5070685;28;20204;-76
2022/06/25 08:28:50;;;;;;;3.70;1.90;;;;;;;;;;5081557;28;20395;-79
2022/06/25 08:31:17;;;;;;;2.75;1.65;;;;;;;;;;5082351;28;20248;-77
2022/06/25 08:33:45;;;;;;;4.18;2.30;;;;;;;;;;5068662;28;20296;-76
2022/06/25 08:36:12;;;;;;;3.17;2.20;;;;;;;;;;5069845;28;20200;-77
2022/06/25 08:38:40;;;;;;;2.50;2.30;;;;;;;;;;5071889;28;20341;-76
2022/06/25 08:41:07;;;;;;;4.22;2.08;;;;;;;;;;5075634;28;20258;-76
2022/06/25 08:43:36;;;;;;;3.55;2.00;;;;;;;;;;5077963;28;20208;-76
2022/06/25 08:46:04;;;;;;;2.88;2.30;;;;;;;;;;5081256;28;20230;-76
2022/06/25 08:48:32;;;;;;;2.00;1.83;;;;;;;;;;5069415;28;20213;-76
2022/06/25 08:50:59;;;;;;;3.53;2.30;;;;;;;;;;5067410;28;20233;-77
2022/06/25 08:53:31;;;;;;;4.57;2.00;;;;;;;;;;5073729;28;20240;-77
2022/06/25 08:56:00;;;;;;;2.05;1.90;;;;;;;;;;5077873;28;20236;-77
2022/06/25 08:58:27;;;;;;;3.65;2.13;;;;;;;;;;5074532;28;20301;-78
2022/06/25 09:00:54;;;;;;;2.75;2.28;;;;;;;;;;5072833;28;20228;-77
2022/06/25 09:03:22;;;;;;;3.15;1.80;;;;;;;;;;5066755;28;20233;-79
2022/06/25 09:05:49;;;;;;;2.20;1.67;;;;;;;;;;5074094;28;20204;-76
2022/06/25 09:08:17;;;;;;;1.90;1.70;;;;;;;;;;5067064;28;20225;-77
2022/06/25 09:10:45;;;;;;;3.13;1.70;;;;;;;;;;5073322;28;20324;-77
2022/06/25 09:13:13;;;;;;;1.92;1.67;;;;;;;;;;5075433;28;20299;-77
2022/06/25 09:15:42;;;;;;;2.30;1.60;;;;;;;;;;5077542;28;20286;-77
2022/06/25 09:18:13;;;;;;;4.07;1.98;;;;;;;;;;5084361;28;20213;-77
2022/06/25 09:21:01;;;;;;;2.30;1.60;;;;;;;;;;5061821;28;20228;-76
2022/06/25 09:23:30;;;;;;;3.60;1.40;;;;;;;;;;5057044;28;20340;-79
2022/06/25 09:26:07;;;;;;;1.83;1.70;;;;;;;;;;5075564;28;20204;-76
2022/06/25 09:28:44;;;;;;;2.72;1.80;;;;;;;;;;5073083;28;20288;-78
2022/06/25 09:31:11;;;;;;;4.22;1.58;;;;;;;;;;5075559;28;20232;-78
2022/06/25 09:33:40;;;;;;;1.50;1.40;;;;;;;;;;5083081;28;20227;-76
2022/06/25 09:36:09;;;;;;;3.28;1.25;;;;;;;;;;5081197;28;20228;-79
2022/06/25 09:38:48;;;;;;;1.70;1.42;;;;;;;;;;5072140;28;20200;-77
2022/06/25 09:41:16;;;;;;;1.33;1.27;;;;;;;;;;5088251;28;20294;-77
2022/06/25 09:43:47;;;;;;;1.42;1.30;;;;;;;;;;5086138;28;20246;-78
2022/06/25 09:46:15;;;;;;;1.45;1.20;;;;;;;;;;5081210;28;20198;-77
2022/06/25 09:48:42;;;;;;;1.23;1.10;;;;;;;;;;5088767;28;20220;-77
2022/06/25 09:51:14;;;;;;;1.42;1.33;;;;;;;;;;5085003;28;20735;-76
2022/06/25 09:53:54;;;;;;;2.45;1.40;;;;;;;;;;5087084;28;20250;-76
2022/06/25 09:56:23;;;;;;;1.92;1.55;;;;;;;;;;5085420;28;20235;-75
2022/06/25 09:58:50;;;;;;;1.98;1.20;;;;;;;;;;5078373;28;20288;-76
2022/06/25 10:01:19;;;;;;;1.40;1.30;;;;;;;;;;5077034;28;21787;-75
2022/06/25 10:03:47;;;;;;;3.10;1.00;;;;;;;;;;5077253;28;20229;-76
2022/06/25 10:06:15;;;;;;;1.25;1.15;;;;;;;;;;5072335;28;20242;-76
2022/06/25 10:08:46;;;;;;;1.98;1.30;;;;;;;;;;5074107;28;20242;-74
2022/06/25 10:11:14;;;;;;;2.58;1.25;;;;;;;;;;5052425;28;20323;-75
2022/06/25 10:13:42;;;;;;;1.30;1.13;;;;;;;;;;5064184;28;20221;-76
2022/06/25 10:16:09;;;;;;;1.80;1.15;;;;;;;;;;5079394;28;20204;-78
2022/06/25 10:18:37;;;;;;;1.25;1.00;;;;;;;;;;5060959;28;20201;-77
2022/06/25 10:21:04;;;;;;;2.30;1.45;;;;;;;;;;5080146;28;20224;-77
2022/06/25 10:23:41;;;;;;;1.13;1.00;;;;;;;;;;5071488;28;20332;-76
2022/06/25 10:26:09;;;;;;;1.60;1.00;;;;;;;;;;5068551;28;20292;-75
2022/06/25 10:28:36;;;;;;;2.25;1.10;;;;;;;;;;5071721;28;22063;-78
2022/06/25 10:31:08;;;;;;;1.20;1.20;;;;;;;;;;5068061;28;20310;-75
2022/06/25 10:34:02;;;;;;;1.30;1.20;;;;;;;;;;5075756;28;20344;-75
2022/06/25 10:36:57;;;;;;;1.23;1.10;;;;;;;;;;5045595;28;20210;-76
2022/06/25 10:39:27;;;;;;;1.60;1.25;;;;;;;;;;5054059;28;20822;-77
2022/06/25 10:45:05;;;;;;;1.15;1.05;;;;;;;;;;5083533;28;20344;-76
2022/06/25 10:47:47;;;;;;;1.30;1.17;;;;;;;;;;5076083;28;20200;-76
2022/06/25 10:50:23;;;;;;;1.45;1.33;;;;;;;;;;5083052;28;20286;-78
2022/06/25 10:53:03;;;;;;;1.20;1.10;;;;;;;;;;5071548;28;20201;-77
2022/06/25 10:55:40;;;;;;;1.40;1.30;;;;;;;;;;5082306;28;20285;-78
2022/06/25 10:58:17;;;;;;;1.83;1.02;;;;;;;;;;5074729;28;20842;-76
2022/06/25 11:01:01;;;;;;;1.58;0.98;;;;;;;;;;5071956;28;20332;-77
2022/06/25 11:03:29;;;;;;;2.75;1.00;;;;;;;;;;5072616;28;20211;-76
2022/06/25 11:06:14;;;;;;;2.00;1.00;;;;;;;;;;5069364;28;20181;-76
2022/06/25 11:08:42;;;;;;;0.90;0.90;;;;;;;;;;5070519;28;20205;-77
2022/06/25 11:11:09;;;;;;;1.20;1.10;;;;;;;;;;5073808;28;20263;-76
2022/06/25 11:13:39;;;;;;;1.02;1.00;;;;;;;;;;5073696;28;20306;-77
2022/06/25 11:16:13;;;;;;;0.85;0.85;;;;;;;;;;5075228;28;20252;-76
2022/06/25 11:18:51;;;;;;;0.90;0.90;;;;;;;;;;5079552;28;20292;-75
2022/06/25 11:21:25;;;;;;;1.33;1.00;;;;;;;;;;5075836;28;20312;-76
2022/06/25 11:23:53;;;;;;;1.15;1.02;;;;;;;;;;5067601;28;20288;-75
2022/06/25 11:29:07;;;;;;;1.20;1.10;;;;;;;;;;5064185;28;20331;-75
2022/06/25 11:31:34;;;;;;;1.75;1.20;;;;;;;;;;5064218;28;20642;-76
2022/06/25 11:34:03;;;;;;;1.00;1.00;;;;;;;;;;5078614;28;20300;-77
2022/06/25 11:36:33;;;;;;;1.05;1.00;;;;;;;;;;5063442;28;20228;-77
2022/06/25 11:39:00;;;;;;;1.75;1.38;;;;;;;;;;5073550;28;20204;-78
2022/06/25 11:41:32;;;;;;;1.42;1.27;;;;;;;;;;5068080;28;20270;-77
2022/06/25 11:44:06;;;;;;;1.50;1.05;;;;;;;;;;5071393;28;20468;-76
2022/06/25 11:46:36;;;;;;;1.60;1.00;;;;;;;;;;5067185;28;20230;-75
2022/06/25 11:49:04;;;;;;;2.70;1.20;;;;;;;;;;5065400;28;20201;-75
2022/06/25 11:51:32;;;;;;;1.15;1.10;;;;;;;;;;5066156;28;20806;-76
2022/06/25 11:54:08;;;;;;;0.88;0.88;;;;;;;;;;5068955;28;20224;-75
2022/06/25 11:56:35;;;;;;;1.88;0.95;;;;;;;;;;5056248;28;21159;-79
2022/06/25 11:59:03;;;;;;;1.20;1.10;;;;;;;;;;5068995;28;20351;-77
2022/06/25 12:01:31;;;;;;;1.42;1.05;;;;;;;;;;5048269;28;20222;-76
2022/06/25 12:03:58;;;;;;;0.90;0.90;;;;;;;;;;5069384;28;20214;-77
2022/06/25 12:06:25;;;;;;;0.82;0.82;;;;;;;;;;5074176;28;23053;-77
2022/06/25 12:08:53;;;;;;;0.77;0.77;;;;;;;;;;5077425;28;20297;-78
2022/06/25 12:11:20;;;;;;;1.25;1.10;;;;;;;;;;5065551;28;20340;-77
2022/06/25 12:13:49;;;;;;;0.98;0.98;;;;;;;;;;5076685;28;20594;-77
2022/06/25 12:16:16;;;;;;;3.78;1.20;;;;;;;;;;5077518;28;20200;-79
2022/06/25 12:18:44;;;;;;;0.70;0.70;;;;;;;;;;5083122;28;20208;-79
2022/06/25 12:21:18;;;;;;;1.05;1.00;;;;;;;;;;5062360;28;20319;-78
2022/06/25 12:23:52;;;;;;;0.77;0.77;;;;;;;;;;5067326;28;20304;-75
2022/06/25 12:26:32;;;;;;;1.30;1.08;;;;;;;;;;5073686;28;20225;-79
2022/06/25 12:29:06;;;;;;;0.90;0.90;;;;;;;;;;5068954;28;20289;-77
2022/06/25 12:31:34;;;;;;;0.80;0.80;;;;;;;;;;5071301;28;20719;-75
2022/06/25 12:34:05;;;;;;;1.00;0.90;;;;;;;;;;5073550;28;20433;-76
2022/06/25 12:36:39;;;;;;;1.27;1.17;;;;;;;;;;5068482;28;20209;-74
2022/06/25 12:39:25;;;;;;;0.85;0.82;;;;;;;;;;5051410;28;20239;-76
2022/06/25 12:41:52;;;;;;;2.10;0.90;;;;;;;;;;5065343;28;20224;-78
2022/06/25 12:44:20;;;;;;;1.00;0.70;;;;;;;;;;5079163;28;20284;-79
2022/06/25 12:47:07;;;;;;;0.70;0.70;;;;;;;;;;5085663;28;20697;-78
2022/06/25 12:49:45;;;;;;;1.00;0.88;;;;;;;;;;5080124;28;20224;-79
2022/06/25 12:52:12;;;;;;;1.55;0.90;;;;;;;;;;5080713;28;20264;-77
2022/06/25 12:54:43;;;;;;;0.80;0.80;;;;;;;;;;5085116;28;20636;-77
2022/06/25 12:57:17;;;;;;;0.70;0.70;;;;;;;;;;5081062;28;20215;-76
2022/06/25 12:59:45;;;;;;;0.70;0.70;;;;;;;;;;5066760;28;20199;-77
2022/06/25 13:02:13;;;;;;;1.23;1.20;;;;;;;;;;5068754;28;20244;-78
2022/06/25 13:04:42;;;;;;;8.55;7.70;;;;;;;;;;5081421;28;20205;-78
2022/06/25 13:07:13;;;;;;;2.03;1.80;;;;;;;;;;5079604;28;20289;-78
2022/06/25 13:09:41;;;;;;;2.35;1.30;;;;;;;;;;5086286;28;20284;-77
2022/06/25 13:12:23;;;;;;;1.15;1.05;;;;;;;;;;5085280;28;20318;-77
2022/06/25 13:14:51;;;;;;;2.60;2.40;;;;;;;;;;5090735;28;20601;-77
2022/06/25 13:17:18;;;;;;;0.60;0.60;;;;;;;;;;5089483;28;20240;-76
2022/06/25 13:19:45;;;;;;;0.70;0.70;;;;;;;;;;5080358;28;20710;-78
2022/06/25 13:22:13;;;;;;;1.95;1.00;;;;;;;;;;5070130;28;20228;-78
2022/06/25 13:24:40;;;;;;;1.00;1.00;;;;;;;;;;5086381;28;20839;-77
2022/06/25 13:27:07;;;;;;;1.67;0.80;;;;;;;;;;5090509;28;20627;-76
2022/06/25 13:29:34;;;;;;;2.17;0.80;;;;;;;;;;5080132;28;20233;-77
2022/06/25 13:32:03;;;;;;;1.13;0.73;;;;;;;;;;5081378;28;20868;-78
2022/06/25 13:34:31;;;;;;;1.25;0.82;;;;;;;;;;5070208;28;20296;-78
2022/06/25 13:36:58;;;;;;;1.20;0.80;;;;;;;;;;5062921;28;20296;-78
2022/06/25 13:39:25;;;;;;;0.80;0.80;;;;;;;;;;5078527;28;20254;-76
2022/06/25 13:41:53;;;;;;;1.60;0.88;;;;;;;;;;5084635;28;20244;-78
2022/06/25 13:44:21;;;;;;;1.92;0.77;;;;;;;;;;5068461;28;20222;-77
2022/06/25 13:46:48;;;;;;;0.70;0.70;;;;;;;;;;5071313;28;20308;-76
2022/06/25 13:49:16;;;;;;;1.67;0.70;;;;;;;;;;5079620;28;20264;-76
2022/06/25 13:51:44;;;;;;;1.70;0.85;;;;;;;;;;5076604;28;20661;-78
2022/06/25 13:54:11;;;;;;;0.85;0.70;;;;;;;;;;5075580;28;20235;-79
2022/06/25 13:56:38;;;;;;;0.82;0.82;;;;;;;;;;5075343;28;20204;-77
2022/06/25 13:59:07;;;;;;;1.75;0.80;;;;;;;;;;5071030;28;20545;-78
2022/06/25 14:01:34;;;;;;;2.78;0.82;;;;;;;;;;5050443;28;20714;-77
2022/06/25 14:04:02;;;;;;;0.68;0.68;;;;;;;;;;5076727;28;20612;-77
2022/06/25 14:06:31;;;;;;;1.30;0.70;;;;;;;;;;5080638;28;20225;-76
2022/06/25 14:08:58;;;;;;;0.75;0.73;;;;;;;;;;5077869;28;20292;-78
2022/06/25 14:11:27;;;;;;;1.77;0.75;;;;;;;;;;5078192;28;20217;-79
2022/06/25 14:13:54;;;;;;;1.17;0.90;;;;;;;;;;5080230;28;20212;-79
2022/06/25 14:16:21;;;;;;;0.50;0.50;;;;;;;;;;5086990;28;20236;-77
2022/06/25 14:18:49;;;;;;;0.73;0.73;;;;;;;;;;5075766;28;20234;-78
2022/06/25 14:21:16;;;;;;;0.77;0.77;;;;;;;;;;5082885;28;20776;-78
2022/06/25 14:23:43;;;;;;;0.90;0.90;;;;;;;;;;5085529;28;20197;-76
2022/06/25 14:26:10;;;;;;;1.15;0.90;;;;;;;;;;5086268;28;20236;-78
2022/06/25 14:28:38;;;;;;;0.70;0.70;;;;;;;;;;5080668;28;20284;-77
2022/06/25 14:31:06;;;;;;;0.70;0.70;;;;;;;;;;5067724;28;20231;-77
2022/06/25 14:33:34;;;;;;;1.67;0.88;;;;;;;;;;5089881;28;20204;-77
2022/06/25 14:44:41;;;;;;;0.90;0.80;;;;;;;;;;5085921;28;20202;-79
2022/06/25 14:47:10;;;;;;;1.63;1.05;;;;;;;;;;5096001;27;20316;-78
2022/06/25 14:49:37;;;;;;;2.15;0.77;;;;;;;;;;5080295;28;20203;-79
2022/06/25 14:52:04;;;;;;;0.70;0.70;;;;;;;;;;5082999;28;21584;-80
2022/06/25 14:54:32;;;;;;;1.00;0.90;;;;;;;;;;5087797;28;20240;-76
2022/06/25 14:56:59;;;;;;;0.95;0.75;;;;;;;;;;5089747;28;20284;-78
2022/06/25 14:59:27;;;;;;;0.90;0.90;;;;;;;;;;5067615;28;20336;-79
2022/06/25 15:01:54;;;;;;;0.80;0.80;;;;;;;;;;5086361;28;20269;-78
2022/06/25 15:04:21;;;;;;;3.50;0.90;;;;;;;;;;5087966;28;20516;-78
2022/06/25 15:06:48;;;;;;;2.25;1.10;;;;;;;;;;5086723;28;20199;-79
2022/06/25 15:09:16;;;;;;;0.80;0.80;;;;;;;;;;5072457;28;20217;-78
2022/06/25 15:11:43;;;;;;;0.82;0.82;;;;;;;;;;5085755;28;20316;-78
2022/06/25 15:14:10;;;;;;;0.65;0.65;;;;;;;;;;5088579;28;20217;-79